Time;durP1;ratioP1;P1;durP2;ratioP2;P2;SDS_P1;SDS_P2;PMS_P1;PMS_P2;Temp;Humidity;BMP_temperature;BMP_pressure;BME280_temperature;BME280_humidity;BME280_pressure;Samples;Min_cycle;Max_cycle;Signal;HPM_P1;HPM_P2
2023/12/19 00:01:57;;;;;;;13.45;7.00;;;8.30;65.10;;;;;;7810610;22;20078;-74
2023/12/19 00:04:59;;;;;;;14.55;6.45;;;8.30;65.00;;;;;;7783424;22;20011;-76
2023/12/19 00:08:01;;;;;;;28.00;8.75;;;8.30;65.00;;;;;;7783810;22;20325;-76
2023/12/19 00:11:03;;;;;;;16.80;6.97;;;8.20;64.90;;;;;;7757748;22;20034;-76
2023/12/19 00:14:06;;;;;;;22.55;7.32;;;8.10;65.00;;;;;;7733481;22;20018;-76
2023/12/19 00:17:07;;;;;;;15.23;7.47;;;8.20;65.10;;;;;;7784121;22;20003;-77
2023/12/19 00:20:09;;;;;;;14.52;6.60;;;8.20;65.10;;;;;;7783087;22;20401;-76
2023/12/19 00:23:09;;;;;;;11.25;5.32;;;8.10;65.10;;;;;;7810455;22;20000;-77
2023/12/19 00:26:15;;;;;;;12.32;6.53;;;8.10;65.50;;;;;;7784975;22;20012;-76
2023/12/19 00:29:17;;;;;;;12.93;6.68;;;8.10;65.50;;;;;;7785428;22;20012;-76
2023/12/19 00:32:19;;;;;;;27.42;8.15;;;8.00;65.40;;;;;;7785663;22;20023;-76
2023/12/19 00:35:21;;;;;;;11.32;5.50;;;8.00;65.30;;;;;;7813709;22;20105;-76
2023/12/19 00:38:22;;;;;;;10.88;6.22;;;7.90;65.30;;;;;;7814061;22;20377;-74
2023/12/19 00:41:23;;;;;;;14.82;7.15;;;7.80;65.40;;;;;;7785425;22;20140;-77
2023/12/19 00:44:27;;;;;;;20.38;7.00;;;7.70;65.50;;;;;;7786585;22;20007;-76
2023/12/19 00:47:29;;;;;;;14.93;6.57;;;7.70;65.80;;;;;;7814084;22;20007;-76
2023/12/19 00:50:31;;;;;;;16.45;8.23;;;7.70;65.90;;;;;;7812410;22;20007;-75
2023/12/19 00:53:33;;;;;;;20.65;8.35;;;7.70;65.90;;;;;;7785204;22;20006;-76
2023/12/19 00:56:34;;;;;;;15.77;6.82;;;7.60;65.90;;;;;;7760854;22;20020;-76
2023/12/19 00:59:34;;;;;;;10.63;6.38;;;7.60;65.70;;;;;;7785112;22;20000;-74
2023/12/19 01:02:38;;;;;;;17.63;6.63;;;7.60;65.90;;;;;;7760248;22;20003;-75
2023/12/19 01:05:39;;;;;;;13.65;6.25;;;7.50;66.20;;;;;;7786099;22;20011;-77
2023/12/19 01:08:41;;;;;;;17.58;6.63;;;7.40;66.30;;;;;;7813181;22;19999;-74
2023/12/19 01:11:44;;;;;;;12.13;6.97;;;7.40;66.50;;;;;;7760041;22;20419;-77
2023/12/19 01:14:45;;;;;;;10.98;6.85;;;7.40;66.50;;;;;;7785255;22;19995;-77
2023/12/19 01:17:46;;;;;;;9.90;6.75;;;7.30;66.60;;;;;;7811622;22;20063;-76
2023/12/19 01:20:47;;;;;;;17.38;6.82;;;7.30;66.70;;;;;;7759065;22;20055;-75
2023/12/19 01:23:48;;;;;;;11.38;6.72;;;7.30;66.80;;;;;;7784690;22;20049;-76
2023/12/19 01:26:51;;;;;;;11.93;6.05;;;7.30;66.90;;;;;;7783937;22;20019;-78
2023/12/19 01:29:52;;;;;;;19.55;7.90;;;7.20;66.90;;;;;;7759736;22;20015;-74
2023/12/19 01:32:53;;;;;;;11.30;6.18;;;7.20;66.90;;;;;;7733733;22;20483;-76
2023/12/19 01:35:54;;;;;;;16.33;6.63;;;7.30;66.90;;;;;;7758900;22;20055;-75
2023/12/19 01:38:56;;;;;;;13.25;6.32;;;7.30;66.80;;;;;;7784681;22;20003;-76
2023/12/19 01:41:57;;;;;;;15.02;6.40;;;7.30;66.80;;;;;;7758760;22;19999;-75
2023/12/19 01:45:04;;;;;;;14.45;6.97;;;7.30;66.60;;;;;;7811987;22;20073;-76
2023/12/19 01:48:05;;;;;;;11.73;6.55;;;7.20;66.60;;;;;;7758444;22;20401;-77
2023/12/19 01:51:06;;;;;;;22.63;8.15;;;7.30;66.70;;;;;;7784407;22;20011;-76
2023/12/19 01:54:08;;;;;;;14.25;6.72;;;7.30;66.70;;;;;;7758317;22;20451;-76
2023/12/19 01:57:09;;;;;;;27.38;7.55;;;7.20;66.60;;;;;;7758421;22;20006;-76
2023/12/19 02:00:14;;;;;;;17.38;6.40;;;7.30;66.60;;;;;;7783467;22;20007;-76
2023/12/19 02:03:15;;;;;;;18.35;7.32;;;7.20;66.50;;;;;;7783662;22;20037;-75
2023/12/19 02:06:19;;;;;;;17.52;7.88;;;7.40;66.80;;;;;;7757832;22;20389;-75
2023/12/19 02:09:19;;;;;;;18.00;8.00;;;7.30;66.70;;;;;;7758224;22;20019;-76
2023/12/19 02:12:21;;;;;;;12.77;6.57;;;7.20;66.60;;;;;;7783566;22;20015;-75
2023/12/19 02:15:22;;;;;;;17.35;7.50;;;7.10;66.60;;;;;;7758374;22;20014;-77
2023/12/19 02:18:23;;;;;;;11.20;6.00;;;7.10;66.80;;;;;;7758340;22;19999;-77
2023/12/19 02:21:25;;;;;;;12.18;6.72;;;7.00;66.90;;;;;;7812446;22;19995;-76
2023/12/19 02:24:26;;;;;;;17.52;6.25;;;6.90;67.00;;;;;;7783649;22;20034;-79
2023/12/19 02:27:27;;;;;;;10.02;6.00;;;6.90;67.10;;;;;;7783768;22;20018;-75
2023/12/19 02:30:27;;;;;;;16.60;7.03;;;6.80;67.40;;;;;;7783962;22;20007;-76
2023/12/19 02:33:28;;;;;;;14.43;7.20;;;6.80;67.60;;;;;;7782786;22;20003;-79
2023/12/19 02:36:29;;;;;;;13.05;5.78;;;6.70;67.80;;;;;;7783528;22;19999;-76
2023/12/19 02:39:30;;;;;;;13.85;6.38;;;6.70;67.90;;;;;;7785206;22;20030;-76
2023/12/19 02:42:30;;;;;;;18.20;7.07;;;6.80;68.00;;;;;;7784750;22;20094;-79
2023/12/19 02:45:33;;;;;;;14.18;5.30;;;6.80;67.90;;;;;;7812470;22;20006;-76
2023/12/19 02:48:35;;;;;;;16.92;7.25;;;6.80;68.00;;;;;;7759309;22;20007;-75
2023/12/19 02:51:36;;;;;;;13.50;6.28;;;6.90;68.00;;;;;;7758524;22;20045;-78
2023/12/19 02:54:37;;;;;;;13.75;6.50;;;6.90;67.80;;;;;;7782759;22;20142;-77
2023/12/19 02:57:38;;;;;;;15.77;7.28;;;7.00;67.80;;;;;;7810841;22;19996;-75
2023/12/19 03:00:39;;;;;;;12.07;5.95;;;7.00;67.70;;;;;;7782609;22;20053;-78
2023/12/19 03:03:42;;;;;;;15.63;5.95;;;7.00;67.80;;;;;;7732490;22;20113;-76
2023/12/19 03:06:42;;;;;;;18.30;6.45;;;7.00;67.80;;;;;;7783139;22;20007;-76
2023/12/19 03:09:44;;;;;;;18.38;7.72;;;7.00;67.80;;;;;;7811137;22;20011;-77
2023/12/19 03:12:45;;;;;;;19.95;6.57;;;7.00;67.70;;;;;;7811284;22;20331;-75
2023/12/19 03:15:46;;;;;;;12.32;6.60;;;6.90;67.80;;;;;;7811087;22;20007;-78
2023/12/19 03:18:47;;;;;;;9.88;5.47;;;7.00;67.70;;;;;;7783074;22;19999;-76
2023/12/19 03:21:49;;;;;;;19.42;6.45;;;7.00;68.50;;;;;;7757996;22;20007;-76
2023/12/19 03:24:51;;;;;;;13.18;6.25;;;7.00;67.70;;;;;;7757714;22;20335;-75
2023/12/19 03:27:52;;;;;;;16.42;6.63;;;7.00;67.70;;;;;;7782888;22;20018;-77
2023/12/19 03:30:53;;;;;;;9.98;6.13;;;7.00;67.60;;;;;;7783151;22;20491;-76
2023/12/19 03:33:54;;;;;;;12.95;5.97;;;7.00;67.60;;;;;;7757951;22;20053;-75
2023/12/19 03:36:56;;;;;;;12.05;6.80;;;7.00;67.60;;;;;;7783146;22;20147;-76
2023/12/19 03:39:58;;;;;;;12.60;5.80;;;7.10;67.60;;;;;;7757062;22;20019;-77
2023/12/19 03:42:58;;;;;;;11.18;5.05;;;7.10;67.50;;;;;;7757789;22;20022;-74
2023/12/19 03:46:04;;;;;;;15.15;6.75;;;7.10;67.40;;;;;;7783698;22;20394;-76
2023/12/19 03:49:05;;;;;;;13.98;6.30;;;7.10;67.30;;;;;;7782816;22;20083;-74
2023/12/19 03:52:08;;;;;;;12.90;5.22;;;7.10;67.30;;;;;;7757978;22;20392;-76
2023/12/19 03:55:08;;;;;;;11.63;6.30;;;7.00;67.30;;;;;;7782558;22;20003;-77
2023/12/19 03:58:09;;;;;;;12.75;6.75;;;7.00;67.30;;;;;;7783315;22;20006;-76
2023/12/19 04:01:12;;;;;;;15.73;6.03;;;7.00;67.40;;;;;;7813813;22;20009;-75
2023/12/19 04:04:14;;;;;;;18.92;5.70;;;7.00;67.40;;;;;;7760956;22;20086;-76
2023/12/19 04:07:16;;;;;;;22.73;6.05;;;7.00;67.40;;;;;;7785809;22;20011;-76
2023/12/19 04:10:17;;;;;;;11.65;6.28;;;7.00;67.30;;;;;;7785304;22;20014;-76
2023/12/19 04:13:18;;;;;;;14.70;6.18;;;7.00;67.30;;;;;;7785329;22;20007;-75
2023/12/19 04:16:19;;;;;;;8.80;4.55;;;7.00;67.50;;;;;;7735624;22;20003;-75
2023/12/19 04:19:21;;;;;;;10.93;6.10;;;7.00;67.00;;;;;;7760336;22;20007;-76
2023/12/19 04:22:23;;;;;;;12.25;5.93;;;7.00;67.00;;;;;;7760648;22;20011;-74
2023/12/19 04:25:25;;;;;;;14.55;6.20;;;6.80;67.20;;;;;;7785963;22;20003;-75
2023/12/19 04:28:25;;;;;;;12.20;6.65;;;6.80;67.40;;;;;;7785240;22;20033;-75
2023/12/19 04:31:27;;;;;;;12.90;5.75;;;6.70;67.50;;;;;;7812420;22;20037;-76
2023/12/19 04:34:28;;;;;;;12.65;5.35;;;6.70;67.70;;;;;;7812542;22;19991;-76
2023/12/19 04:37:29;;;;;;;10.38;5.22;;;6.70;67.70;;;;;;7759570;22;20400;-76
2023/12/19 04:40:30;;;;;;;12.63;6.97;;;6.60;67.80;;;;;;7759746;22;20468;-76
2023/12/19 04:43:31;;;;;;;41.25;7.50;;;6.60;67.80;;;;;;7759418;22;20036;-75
2023/12/19 04:46:32;;;;;;;11.50;5.60;;;6.60;67.90;;;;;;7785286;22;20003;-74
2023/12/19 04:49:34;;;;;;;10.48;4.28;;;6.60;68.00;;;;;;7759186;22;20474;-76
2023/12/19 04:52:36;;;;;;;16.50;5.30;;;6.60;68.10;;;;;;7784930;22;20003;-76
2023/12/19 04:55:38;;;;;;;10.02;5.65;;;6.60;68.00;;;;;;7759071;22;20393;-76
2023/12/19 04:58:45;;;;;;;17.38;6.10;;;6.60;68.00;;;;;;7784627;22;20000;-77
2023/12/19 05:01:47;;;;;;;11.07;6.10;;;6.60;68.80;;;;;;7783724;22;20119;-76
2023/12/19 05:04:49;;;;;;;16.40;6.35;;;6.60;67.80;;;;;;7759119;22;20019;-78
2023/12/19 05:07:50;;;;;;;10.10;5.90;;;6.60;67.60;;;;;;7759527;22;20106;-76
2023/12/19 05:10:50;;;;;;;8.93;5.43;;;6.70;67.70;;;;;;7758744;22;20011;-76
2023/12/19 05:13:51;;;;;;;15.60;6.43;;;6.70;67.60;;;;;;7760603;22;20499;-77
2023/12/19 05:16:52;;;;;;;11.73;5.90;;;6.70;67.60;;;;;;7785738;22;20409;-75
2023/12/19 05:19:55;;;;;;;11.07;5.88;;;6.70;67.50;;;;;;7811843;22;20010;-76
2023/12/19 05:22:56;;;;;;;19.67;4.47;;;6.70;67.60;;;;;;7763102;22;20167;-77
2023/12/19 05:25:58;;;;;;;11.98;5.68;;;6.70;67.60;;;;;;7762095;22;20011;-76
2023/12/19 05:29:00;;;;;;;9.70;5.30;;;6.80;67.70;;;;;;7814257;22;20118;-77
2023/12/19 05:32:01;;;;;;;15.18;7.15;;;6.70;67.40;;;;;;7757251;22;20094;-75
2023/12/19 05:35:04;;;;;;;12.85;5.38;;;6.70;67.30;;;;;;7754193;22;20010;-76
2023/12/19 05:38:07;;;;;;;15.90;7.65;;;6.60;67.40;;;;;;7757833;22;20065;-76
2023/12/19 05:41:14;;;;;;;10.85;5.10;;;6.60;67.50;;;;;;7809349;22;20003;-74
2023/12/19 05:44:16;;;;;;;12.40;6.03;;;6.60;67.70;;;;;;7781199;22;20027;-76
2023/12/19 05:47:17;;;;;;;8.02;6.10;;;6.70;67.80;;;;;;7782073;22;20022;-76
2023/12/19 05:50:18;;;;;;;10.75;5.45;;;6.60;67.80;;;;;;7780818;22;20003;-77
2023/12/19 05:53:19;;;;;;;20.13;5.22;;;6.60;67.80;;;;;;7786950;22;20007;-76
2023/12/19 05:56:20;;;;;;;11.88;5.03;;;6.60;67.90;;;;;;7780874;22;20011;-76
2023/12/19 05:59:22;;;;;;;9.90;4.75;;;6.50;68.10;;;;;;7757115;22;20396;-77
2023/12/19 06:02:27;;;;;;;10.65;5.05;;;6.50;68.10;;;;;;7780722;22;20003;-75
2023/12/19 06:05:29;;;;;;;10.65;6.15;;;6.60;68.40;;;;;;7759458;22;20087;-76
2023/12/19 06:08:29;;;;;;;11.50;5.57;;;6.50;68.40;;;;;;7755214;22;20010;-76
2023/12/19 06:11:30;;;;;;;9.60;4.97;;;6.60;68.40;;;;;;7779621;22;20031;-75
2023/12/19 06:14:31;;;;;;;11.93;6.28;;;6.60;68.40;;;;;;7779375;22;20089;-76
2023/12/19 06:17:32;;;;;;;12.13;5.50;;;6.70;68.40;;;;;;7779372;22;20379;-77
2023/12/19 06:20:33;;;;;;;8.50;4.63;;;6.70;68.30;;;;;;7780508;22;20066;-76
2023/12/19 06:23:34;;;;;;;15.20;5.70;;;6.80;68.20;;;;;;7754003;22;20021;-76
2023/12/19 06:26:35;;;;;;;8.27;4.90;;;6.80;68.10;;;;;;7781118;22;20064;-77
2023/12/19 06:29:37;;;;;;;8.57;5.35;;;6.80;67.90;;;;;;7779301;22;20026;-76
2023/12/19 06:32:40;;;;;;;12.50;6.70;;;6.90;67.90;;;;;;7781810;22;20003;-76
2023/12/19 06:35:45;;;;;;;10.32;5.57;;;6.90;67.70;;;;;;7757063;22;19996;-74
2023/12/19 06:38:47;;;;;;;9.55;4.78;;;6.90;67.60;;;;;;7809951;22;20419;-76
2023/12/19 06:41:50;;;;;;;11.00;4.95;;;6.90;67.40;;;;;;7782223;22;20018;-76
2023/12/19 06:44:51;;;;;;;12.80;7.07;;;6.80;67.40;;;;;;7811289;22;20082;-74
2023/12/19 06:47:52;;;;;;;12.00;5.60;;;6.80;67.20;;;;;;7811512;22;20452;-75
2023/12/19 06:50:53;;;;;;;13.52;5.95;;;6.70;67.20;;;;;;7757905;22;20060;-75
2023/12/19 06:53:55;;;;;;;12.82;5.05;;;6.70;67.10;;;;;;7784617;22;20007;-77
2023/12/19 06:56:56;;;;;;;13.85;7.07;;;6.70;67.20;;;;;;7759026;22;20251;-76
2023/12/19 06:59:57;;;;;;;11.93;5.10;;;6.60;67.20;;;;;;7784594;22;20515;-77
2023/12/19 07:02:58;;;;;;;13.40;4.82;;;6.60;67.20;;;;;;7758373;22;20007;-77
2023/12/19 07:05:59;;;;;;;17.05;4.90;;;6.60;67.10;;;;;;7784143;22;20011;-78
2023/12/19 07:09:00;;;;;;;6.60;3.90;;;6.60;66.90;;;;;;7783369;22;20326;-76
2023/12/19 07:12:01;;;;;;;16.02;6.20;;;6.40;66.70;;;;;;7757969;22;20084;-76
2023/12/19 07:15:04;;;;;;;15.82;5.32;;;6.30;66.90;;;;;;7810839;22;20007;-75
2023/12/19 07:18:05;;;;;;;10.23;4.30;;;6.20;67.00;;;;;;7784816;22;19999;-77
2023/12/19 07:21:07;;;;;;;8.15;4.57;;;6.10;67.30;;;;;;7784941;22;20000;-77
2023/12/19 07:24:09;;;;;;;11.52;4.65;;;6.10;67.80;;;;;;7783945;22;20376;-76
2023/12/19 07:27:11;;;;;;;12.13;4.25;;;6.10;68.10;;;;;;7783418;22;20007;-79
2023/12/19 07:30:12;;;;;;;10.73;4.72;;;6.10;68.40;;;;;;7811056;22;20006;-76
2023/12/19 07:33:13;;;;;;;10.73;4.57;;;6.10;68.50;;;;;;7759046;22;20113;-76
2023/12/19 07:36:14;;;;;;;10.15;3.72;;;6.20;68.60;;;;;;7813069;22;20258;-75
2023/12/19 07:39:16;;;;;;;8.57;4.15;;;6.20;68.50;;;;;;7785696;22;19995;-76
2023/12/19 07:42:17;;;;;;;9.85;4.07;;;6.20;68.30;;;;;;7813394;22;19995;-76
2023/12/19 07:45:18;;;;;;;16.85;6.40;;;6.30;68.30;;;;;;7786014;22;20076;-76
2023/12/19 07:48:19;;;;;;;12.60;5.07;;;6.20;67.90;;;;;;7760920;22;20003;-76
2023/12/19 07:51:24;;;;;;;9.75;5.82;;;6.30;67.70;;;;;;7760505;22;20086;-77
2023/12/19 07:54:25;;;;;;;11.48;5.97;;;6.20;67.50;;;;;;7813943;22;20048;-76
2023/12/19 07:57:27;;;;;;;6.75;4.43;;;6.20;67.50;;;;;;7760563;22;20409;-76
2023/12/19 08:00:28;;;;;;;9.00;5.10;;;6.10;67.30;;;;;;7785810;22;20027;-76
2023/12/19 08:03:30;;;;;;;9.20;4.75;;;6.10;67.30;;;;;;7811786;22;20034;-74
2023/12/19 08:06:31;;;;;;;10.45;6.05;;;6.10;67.50;;;;;;7758832;22;20101;-75
2023/12/19 08:09:32;;;;;;;21.20;6.28;;;6.10;67.70;;;;;;7758898;22;20025;-75
2023/12/19 08:12:34;;;;;;;10.05;4.65;;;6.10;67.70;;;;;;7812156;22;20113;-76
2023/12/19 08:15:35;;;;;;;11.63;5.20;;;6.20;67.60;;;;;;7784546;22;20032;-76
2023/12/19 08:18:39;;;;;;;10.20;5.05;;;6.20;67.40;;;;;;7785320;22;20417;-76
2023/12/19 08:21:54;;;;;;;12.35;5.50;;;6.30;67.30;;;;;;7811634;22;20075;-76
2023/12/19 08:24:55;;;;;;;9.55;4.88;;;6.30;67.20;;;;;;7783622;22;20351;-74
2023/12/19 08:27:56;;;;;;;10.15;5.05;;;6.40;67.30;;;;;;7782800;22;20038;-75
2023/12/19 08:30:57;;;;;;;9.88;5.68;;;6.50;67.30;;;;;;7783262;22;20290;-76
2023/12/19 08:33:57;;;;;;;11.80;5.57;;;6.60;67.30;;;;;;7811926;22;20010;-75
2023/12/19 08:37:00;;;;;;;12.48;5.20;;;6.70;67.10;;;;;;7733150;22;20317;-74
2023/12/19 08:40:02;;;;;;;13.30;6.47;;;6.80;67.00;;;;;;7811784;22;20012;-76
2023/12/19 08:43:04;;;;;;;8.98;5.63;;;6.90;66.70;;;;;;7759050;22;20007;-75
2023/12/19 08:46:05;;;;;;;11.25;5.10;;;7.00;66.30;;;;;;7783942;22;20007;-75
2023/12/19 08:49:06;;;;;;;9.35;4.93;;;7.10;66.20;;;;;;7784279;22;20059;-75
2023/12/19 08:52:07;;;;;;;14.90;6.68;;;7.10;66.00;;;;;;7811722;22;20525;-76
2023/12/19 08:55:11;;;;;;;17.65;7.35;;;7.20;66.00;;;;;;7811310;22;19995;-75
2023/12/19 08:58:13;;;;;;;10.10;6.07;;;7.20;65.80;;;;;;7758675;22;20019;-76
2023/12/19 09:01:14;;;;;;;12.48;6.78;;;7.30;65.70;;;;;;7761924;22;20023;-77
2023/12/19 09:04:15;;;;;;;14.88;7.97;;;7.40;65.60;;;;;;7757709;22;20047;-75
2023/12/19 09:07:16;;;;;;;14.45;7.60;;;7.50;65.50;;;;;;7783507;22;20053;-75
2023/12/19 09:10:17;;;;;;;23.80;7.95;;;7.50;65.30;;;;;;7783766;22;20010;-76
2023/12/19 09:13:20;;;;;;;30.33;9.95;;;7.60;65.20;;;;;;7783020;22;20081;-76
2023/12/19 09:16:21;;;;;;;25.80;9.48;;;7.70;65.00;;;;;;7784679;22;20003;-76
2023/12/19 09:19:21;;;;;;;17.67;8.18;;;7.90;65.00;;;;;;7811679;22;20392;-76
2023/12/19 09:22:22;;;;;;;19.35;7.65;;;7.90;64.80;;;;;;7811391;22;20009;-77
2023/12/19 09:25:23;;;;;;;12.50;6.82;;;8.00;64.70;;;;;;7783957;22;20071;-74
2023/12/19 09:28:29;;;;;;;15.00;6.28;;;8.10;64.50;;;;;;7783582;22;20003;-75
2023/12/19 09:31:30;;;;;;;16.45;5.43;;;8.10;64.20;;;;;;7784320;22;20003;-75
2023/12/19 09:34:31;;;;;;;15.07;7.82;;;8.20;64.10;;;;;;7782694;22;20008;-75
2023/12/19 09:37:32;;;;;;;14.85;6.45;;;8.30;63.80;;;;;;7757258;22;20034;-76
2023/12/19 09:40:34;;;;;;;15.73;5.95;;;8.30;63.60;;;;;;7783507;22;20003;-76
2023/12/19 09:43:36;;;;;;;15.07;5.63;;;8.40;63.70;;;;;;7783282;22;19995;-76
2023/12/19 09:46:37;;;;;;;17.42;7.07;;;8.40;63.50;;;;;;7783241;22;20481;-76
2023/12/19 09:49:41;;;;;;;14.63;7.05;;;8.50;63.30;;;;;;7784111;22;20004;-77
2023/12/19 09:52:43;;;;;;;12.35;7.40;;;8.50;63.20;;;;;;7811012;22;20090;-75
2023/12/19 09:55:46;;;;;;;17.02;8.07;;;8.60;63.50;;;;;;7783607;22;20066;-77
2023/12/19 09:58:53;;;;;;;14.25;6.47;;;8.70;63.20;;;;;;7783231;22;20088;-75
2023/12/19 10:01:56;;;;;;;24.02;10.00;;;9.00;62.30;;;;;;7758207;22;20371;-74
2023/12/19 10:04:57;;;;;;;20.88;10.23;;;9.20;61.80;;;;;;7810167;22;20007;-75
2023/12/19 10:07:59;;;;;;;27.83;8.23;;;9.40;61.90;;;;;;7811323;22;19999;-77
2023/12/19 10:11:03;;;;;;;30.77;8.88;;;9.70;62.00;;;;;;7756909;22;20011;-75
2023/12/19 10:14:17;;;;;;;19.13;7.80;;;9.90;61.40;;;;;;7757000;22;20026;-75
2023/12/19 10:17:21;;;;;;;15.98;8.15;;;10.20;60.60;;;;;;7782976;22;20000;-76
2023/12/19 10:20:24;;;;;;;15.57;7.75;;;10.40;60.20;;;;;;7783059;22;20249;-75
2023/12/19 10:23:25;;;;;;;21.40;8.57;;;10.50;59.80;;;;;;7783142;22;19999;-75
2023/12/19 10:26:29;;;;;;;15.93;7.00;;;10.70;59.20;;;;;;7810386;22;20007;-75
2023/12/19 10:29:36;;;;;;;14.40;6.70;;;10.90;58.50;;;;;;7781722;22;20114;-77
2023/12/19 10:32:38;;;;;;;20.15;8.95;;;11.00;58.50;;;;;;7783620;22;20168;-75
2023/12/19 10:35:40;;;;;;;20.88;8.82;;;11.30;57.60;;;;;;7782180;22;19991;-76
2023/12/19 10:38:47;;;;;;;30.70;8.27;;;11.40;56.50;;;;;;7757137;22;20055;-76
2023/12/19 10:41:48;;;;;;;18.90;8.95;;;11.50;56.20;;;;;;7757024;22;20101;-75
2023/12/19 10:44:50;;;;;;;21.05;8.40;;;11.70;55.80;;;;;;7781881;22;20456;-76
2023/12/19 10:47:51;;;;;;;25.13;10.35;;;12.10;55.10;;;;;;7810896;22;19999;-75
2023/12/19 10:50:53;;;;;;;24.80;12.35;;;12.40;54.20;;;;;;7756597;22;20007;-76
2023/12/19 10:54:04;;;;;;;18.95;9.07;;;12.80;53.30;;;;;;7809615;22;20011;-74
2023/12/19 10:57:16;;;;;;;23.45;7.78;;;13.10;52.60;;;;;;7784940;22;20041;-76
2023/12/19 11:00:24;;;;;;;17.48;8.55;;;13.60;51.80;;;;;;7781691;22;20007;-76
2023/12/19 11:03:52;;;;;;;17.48;8.45;;;14.20;50.70;;;;;;7782593;22;20043;-76
2023/12/19 11:06:57;;;;;;;20.73;8.60;;;14.70;48.80;;;;;;7757700;22;20118;-75
2023/12/19 11:10:06;;;;;;;14.88;7.07;;;15.20;47.90;;;;;;7810321;22;20091;-76
2023/12/19 11:13:25;;;;;;;20.55;8.13;;;15.80;46.70;;;;;;7779757;22;20011;-76
2023/12/19 11:16:48;;;;;;;18.15;8.43;;;16.40;46.00;;;;;;7756705;22;20003;-77
2023/12/19 11:20:16;;;;;;;17.65;8.05;;;17.10;44.40;;;;;;7757334;22;20011;-77
2023/12/19 11:23:42;;;;;;;17.17;8.25;;;17.60;43.60;;;;;;7618102;23;20970;-77
2023/12/19 11:27:33;;;;;;;13.40;7.65;;;18.10;41.60;;;;;;7592532;23;20089;-76
2023/12/19 11:30:35;;;;;;;;;;;18.30;41.10;;;;;;7556812;23;20416;-76
2023/12/19 11:33:38;;;;;;;27.20;7.65;;;18.70;40.50;;;;;;7580346;23;19901;-77
2023/12/19 11:36:44;;;;;;;14.32;7.60;;;19.10;40.00;;;;;;7532353;23;20010;-77
2023/12/19 11:39:48;;;;;;;22.48;8.63;;;19.00;39.30;;;;;;7580149;23;20005;-76
2023/12/19 11:42:48;;;;;;;21.17;9.02;;;18.30;41.20;;;;;;7556700;23;20021;-77
2023/12/19 11:45:49;;;;;;;16.35;8.38;;;17.60;41.70;;;;;;7581064;23;20686;-74
2023/12/19 11:48:52;;;;;;;19.17;9.05;;;16.90;43.00;;;;;;7556354;23;20069;-75
2023/12/19 11:51:55;;;;;;;15.43;7.90;;;16.30;44.40;;;;;;7581114;23;20014;-74
2023/12/19 11:54:56;;;;;;;15.48;7.30;;;15.80;45.30;;;;;;7533603;23;20212;-75
2023/12/19 11:58:10;;;;;;;14.63;7.82;;;15.40;45.50;;;;;;7532702;23;20374;-76
2023/12/19 12:01:12;;;;;;;18.70;8.32;;;14.90;46.80;;;;;;7649209;23;20016;-76
2023/12/19 12:04:14;;;;;;;19.95;8.93;;;14.50;46.80;;;;;;7665810;23;20151;-77
2023/12/19 12:07:15;;;;;;;22.77;8.32;;;14.20;47.30;;;;;;7719426;22;20093;-77
2023/12/19 12:10:27;;;;;;;24.00;8.93;;;13.90;47.90;;;;;;7743807;22;20000;-75
2023/12/19 12:13:29;;;;;;;17.10;7.40;;;13.70;48.60;;;;;;7719207;22;20080;-77
2023/12/19 12:16:40;;;;;;;17.00;7.63;;;13.50;48.90;;;;;;7743267;22;20050;-77
2023/12/19 12:19:42;;;;;;;13.73;6.35;;;13.60;49.40;;;;;;7774907;22;20101;-78
2023/12/19 12:22:43;;;;;;;19.73;9.57;;;13.30;49.60;;;;;;7747030;22;20079;-76
2023/12/19 12:25:54;;;;;;;15.70;7.88;;;13.20;49.60;;;;;;7721860;22;20011;-76
2023/12/19 12:28:56;;;;;;;16.48;7.38;;;13.20;50.00;;;;;;7740911;22;20023;-76
2023/12/19 12:31:57;;;;;;;12.65;6.22;;;13.10;50.00;;;;;;7721016;22;20440;-76
2023/12/19 12:34:59;;;;;;;22.85;7.57;;;13.00;50.10;;;;;;7773235;22;20077;-75
2023/12/19 12:38:07;;;;;;;17.23;7.32;;;13.00;50.30;;;;;;7748523;22;20027;-77
2023/12/19 12:41:09;;;;;;;10.52;5.82;;;12.90;50.50;;;;;;7773626;22;20010;-75
2023/12/19 12:44:13;;;;;;;14.90;7.75;;;12.80;50.60;;;;;;7770732;22;20058;-76
2023/12/19 12:47:24;;;;;;;16.20;7.13;;;12.80;50.90;;;;;;7747525;22;20396;-75
2023/12/19 12:50:25;;;;;;;12.48;5.70;;;12.70;51.00;;;;;;7773558;22;20023;-77
2023/12/19 12:53:27;;;;;;;13.65;6.18;;;12.70;51.10;;;;;;7772498;22;20003;-77
2023/12/19 12:56:39;;;;;;;10.25;4.93;;;12.70;51.10;;;;;;7770432;22;20078;-77
2023/12/19 12:59:41;;;;;;;11.43;5.50;;;12.70;51.10;;;;;;7745338;22;20014;-76
2023/12/19 13:02:42;;;;;;;8.35;3.97;;;12.60;51.10;;;;;;7774385;22;20422;-77
2023/12/19 13:05:44;;;;;;;7.25;4.38;;;12.60;50.90;;;;;;7773710;22;20003;-77
2023/12/19 13:08:46;;;;;;;7.90;3.55;;;12.70;51.00;;;;;;7771415;22;20386;-77
2023/12/19 13:11:50;;;;;;;4.85;2.55;;;12.70;50.80;;;;;;7745098;22;20004;-77
2023/12/19 13:14:52;;;;;;;10.23;2.58;;;12.70;50.30;;;;;;7771427;22;20014;-77
2023/12/19 13:17:53;;;;;;;4.25;2.35;;;12.70;49.70;;;;;;7773224;22;20056;-77
2023/12/19 13:20:56;;;;;;;10.25;2.72;;;12.80;49.40;;;;;;7772117;22;20098;-76
2023/12/19 13:23:57;;;;;;;5.13;1.67;;;12.80;49.20;;;;;;7747170;22;20121;-77
2023/12/19 13:26:58;;;;;;;3.05;1.92;;;12.90;48.30;;;;;;7781063;22;20034;-76
2023/12/19 13:30:00;;;;;;;7.75;3.28;;;12.90;47.80;;;;;;7757173;22;20011;-75
2023/12/19 13:33:00;;;;;;;3.50;2.15;;;12.80;48.00;;;;;;7756860;22;21431;-75
2023/12/19 13:36:04;;;;;;;7.35;3.42;;;12.90;47.50;;;;;;7783987;22;20513;-76
2023/12/19 13:39:05;;;;;;;8.20;2.60;;;12.90;47.70;;;;;;7782642;22;20051;-76
2023/12/19 13:42:06;;;;;;;5.65;1.92;;;12.90;48.10;;;;;;7758163;22;20674;-76
2023/12/19 13:45:07;;;;;;;3.15;1.92;;;13.00;48.30;;;;;;7757684;22;20109;-75
2023/12/19 13:48:08;;;;;;;2.83;1.77;;;13.00;47.60;;;;;;7784011;22;20076;-75
2023/12/19 13:51:10;;;;;;;5.32;2.45;;;13.00;47.30;;;;;;7783125;22;20015;-76
2023/12/19 13:54:11;;;;;;;4.65;2.17;;;13.00;47.40;;;;;;7811700;22;19995;-76
2023/12/19 13:57:12;;;;;;;7.43;2.10;;;13.10;47.00;;;;;;7784619;22;20035;-75
2023/12/19 14:00:17;;;;;;;5.88;2.30;;;13.10;47.10;;;;;;7810706;22;20078;-76
2023/12/19 14:03:19;;;;;;;4.90;2.35;;;13.10;47.40;;;;;;7811968;22;20107;-76
2023/12/19 14:06:19;;;;;;;5.03;2.40;;;13.20;47.50;;;;;;7757747;22;20087;-77
2023/12/19 14:09:20;;;;;;;6.28;2.58;;;13.20;47.50;;;;;;7783675;22;20015;-76
2023/12/19 14:12:23;;;;;;;4.85;2.30;;;13.20;47.70;;;;;;7782994;22;20003;-76
2023/12/19 14:15:25;;;;;;;2.60;1.67;;;13.20;47.80;;;;;;7758330;22;20003;-75
2023/12/19 14:18:27;;;;;;;4.75;2.00;;;13.30;47.60;;;;;;7756727;22;20025;-76
2023/12/19 14:21:28;;;;;;;6.50;2.47;;;13.30;47.50;;;;;;7782507;22;20317;-76
2023/12/19 14:24:28;;;;;;;5.45;1.92;;;13.30;47.40;;;;;;7782492;22;20099;-76
2023/12/19 14:27:30;;;;;;;5.32;2.67;;;13.30;47.40;;;;;;7781958;22;20007;-74
2023/12/19 14:30:32;;;;;;;6.82;2.40;;;13.30;47.20;;;;;;7756101;22;20019;-76
2023/12/19 14:33:33;;;;;;;9.38;2.97;;;13.30;47.20;;;;;;7809929;22;19995;-76
2023/12/19 14:36:35;;;;;;;5.88;2.78;;;13.40;47.10;;;;;;7782919;22;20033;-75
2023/12/19 14:39:41;;;;;;;9.63;3.22;;;13.40;47.30;;;;;;7782050;22;19995;-76
2023/12/19 14:42:42;;;;;;;6.00;2.67;;;13.40;47.60;;;;;;7757845;22;20003;-78
2023/12/19 14:45:44;;;;;;;10.00;4.03;;;13.40;47.50;;;;;;7809842;22;19999;-75
2023/12/19 14:48:46;;;;;;;14.02;3.67;;;13.40;47.70;;;;;;7810958;22;19999;-75
2023/12/19 14:51:47;;;;;;;11.68;3.17;;;13.40;47.70;;;;;;7781662;22;20037;-75
2023/12/19 14:54:47;;;;;;;7.13;3.10;;;13.40;47.60;;;;;;7810168;22;20472;-76
2023/12/19 14:57:48;;;;;;;7.63;3.60;;;13.40;47.80;;;;;;7756193;22;20106;-75
2023/12/19 15:00:49;;;;;;;10.90;2.67;;;13.30;47.80;;;;;;7809414;22;20014;-76
2023/12/19 15:03:50;;;;;;;5.57;2.70;;;13.40;47.90;;;;;;7810431;22;20002;-77
2023/12/19 15:06:51;;;;;;;8.63;2.78;;;13.40;47.90;;;;;;7756829;22;20003;-76
2023/12/19 15:09:52;;;;;;;11.77;3.72;;;13.30;47.80;;;;;;7781511;22;20007;-78
2023/12/19 15:12:54;;;;;;;9.90;3.20;;;13.30;47.90;;;;;;7806405;22;20045;-77
2023/12/19 15:15:56;;;;;;;11.57;3.75;;;13.40;48.00;;;;;;7778665;22;19999;-78
2023/12/19 15:18:58;;;;;;;10.20;3.72;;;13.30;48.00;;;;;;7779219;22;20010;-77
2023/12/19 15:21:59;;;;;;;11.73;3.75;;;13.30;48.20;;;;;;7779957;22;20492;-77
2023/12/19 15:25:00;;;;;;;9.40;3.38;;;13.30;48.30;;;;;;7778826;22;20034;-76
2023/12/19 15:28:04;;;;;;;6.18;3.10;;;13.30;48.40;;;;;;7805824;22;20007;-78
2023/12/19 15:31:06;;;;;;;8.15;3.45;;;13.20;48.60;;;;;;7752240;22;20019;-77
2023/12/19 15:34:09;;;;;;;21.02;3.88;;;13.30;48.90;;;;;;7755284;22;20090;-77
2023/12/19 15:37:09;;;;;;;9.57;3.65;;;13.20;49.00;;;;;;7755481;22;20004;-75
2023/12/19 15:40:12;;;;;;;12.88;3.65;;;13.20;49.20;;;;;;7807468;22;20447;-75
2023/12/19 15:43:13;;;;;;;6.53;3.58;;;13.10;49.40;;;;;;7779415;22;20011;-76
2023/12/19 15:46:14;;;;;;;15.35;5.90;;;13.10;49.60;;;;;;7778234;22;20034;-76
2023/12/19 15:49:20;;;;;;;14.52;5.10;;;13.10;49.80;;;;;;7776396;22;20011;-75